createdAt,value
2022-09-03T00:00:09.693Z,16.25
2022-09-03T00:03:18.433Z,16.27
2022-09-03T00:06:15.917Z,16.28
2022-09-03T00:09:21.231Z,16.27
2022-09-03T00:11:53.191Z,16.30
2022-09-03T00:14:39.427Z,16.36
2022-09-03T00:17:14.269Z,16.34
2022-09-03T00:19:48.716Z,16.33
2022-09-03T00:22:21.724Z,16.31
2022-09-03T00:24:50.191Z,16.32
2022-09-03T00:27:22.527Z,16.27
2022-09-03T00:30:11.287Z,16.19
2022-09-03T00:32:47.357Z,16.17
2022-09-03T00:35:31.443Z,16.17
2022-09-03T00:38:03.444Z,16.15
2022-09-03T00:41:02.774Z,16.08
2022-09-03T00:44:11.021Z,16.03
2022-09-03T00:46:47.929Z,16.02
2022-09-03T00:49:45.280Z,15.93
2022-09-03T00:52:26.792Z,15.88
2022-09-03T00:55:39.407Z,15.91
2022-09-03T00:58:37.912Z,15.90
2022-09-03T01:01:13.484Z,15.85
2022-09-03T01:04:06.444Z,15.86
2022-09-03T01:06:58.942Z,15.89
2022-09-03T01:09:29.529Z,15.92
2022-09-03T01:12:22.269Z,15.97
2022-09-03T01:14:57.862Z,16.02
2022-09-03T01:17:33.288Z,15.99
2022-09-03T01:20:28.641Z,16.00
2022-09-03T01:23:14.322Z,15.93
2022-09-03T01:25:59.577Z,15.95
2022-09-03T01:28:38.995Z,15.93
2022-09-03T01:31:21.265Z,15.90
2022-09-03T01:34:17.678Z,15.85
2022-09-03T01:37:29.009Z,15.77
2022-09-03T01:40:12.043Z,15.76
2022-09-03T01:43:07.855Z,15.72
2022-09-03T01:45:51.267Z,15.74
2022-09-03T01:48:40.490Z,15.72
2022-09-03T01:51:25.169Z,15.74
2022-09-03T01:54:06.745Z,15.78
2022-09-03T01:57:17.276Z,15.77
2022-09-03T02:00:13.509Z,15.77
2022-09-03T02:02:43.385Z,15.80
2022-09-03T02:05:14.212Z,15.78
2022-09-03T02:07:52.952Z,15.80
2022-09-03T02:10:27.966Z,15.78
2022-09-03T02:13:07.895Z,15.79
2022-09-03T02:15:38.196Z,15.77
2022-09-03T02:18:11.079Z,15.75
2022-09-03T02:20:38.630Z,15.78
2022-09-03T02:23:05.849Z,15.78
2022-09-03T02:25:37.903Z,15.75
2022-09-03T02:28:11.221Z,15.82
2022-09-03T02:30:43.879Z,15.82
2022-09-03T02:33:10.853Z,15.74
2022-09-03T02:35:37.770Z,15.79
2022-09-03T02:38:13.040Z,15.87
2022-09-03T02:40:39.877Z,15.83
2022-09-03T02:43:10.286Z,15.85
2022-09-03T02:45:42.014Z,15.82
2022-09-03T02:48:10.271Z,15.80
2022-09-03T02:50:43.608Z,15.82
2022-09-03T02:53:10.356Z,15.78
2022-09-03T02:55:37.002Z,15.76
2022-09-03T02:58:05.943Z,15.72
2022-09-03T03:00:33.169Z,15.70
2022-09-03T03:02:59.782Z,15.63
2022-09-03T03:05:35.784Z,15.61
2022-09-03T03:08:02.621Z,15.63
2022-09-03T03:10:29.221Z,15.59
2022-09-03T03:12:55.889Z,15.59
2022-09-03T03:15:22.518Z,15.58
2022-09-03T03:17:49.133Z,15.61
2022-09-03T03:20:15.774Z,15.58
2022-09-03T03:22:42.427Z,15.56
2022-09-03T03:25:09.807Z,15.57
2022-09-03T03:27:42.366Z,15.58
2022-09-03T03:30:10.635Z,15.57
2022-09-03T03:32:37.933Z,15.59
2022-09-03T03:35:06.564Z,15.64
2022-09-03T03:37:35.615Z,15.68
2022-09-03T03:40:02.966Z,15.70
2022-09-03T03:42:29.592Z,15.67
2022-09-03T03:44:56.288Z,15.65
2022-09-03T03:47:23.027Z,15.67
2022-09-03T03:49:49.609Z,15.64
2022-09-03T03:52:16.231Z,15.66
2022-09-03T03:54:42.843Z,15.76
2022-09-03T03:57:09.401Z,15.78
2022-09-03T03:59:35.984Z,15.76
2022-09-03T04:02:02.611Z,15.75
2022-09-03T04:04:29.368Z,15.76
2022-09-03T04:06:56.032Z,15.71
2022-09-03T04:09:22.817Z,15.68
2022-09-03T04:11:50.789Z,15.69
2022-09-03T04:14:20.424Z,15.68
2022-09-03T04:16:47.217Z,15.69
2022-09-03T04:19:13.905Z,15.73
2022-09-03T04:21:40.531Z,15.71
2022-09-03T04:24:07.279Z,15.73
2022-09-03T04:26:34.669Z,15.70
2022-09-03T04:29:07.624Z,15.72
2022-09-03T04:31:35.599Z,15.72
2022-09-03T04:34:02.455Z,15.76
2022-09-03T04:36:30.946Z,15.76
2022-09-03T04:38:59.782Z,15.72
2022-09-03T04:41:28.732Z,15.68
2022-09-03T04:43:57.047Z,15.71
2022-09-03T04:46:26.489Z,15.67
2022-09-03T04:48:55.037Z,15.67
2022-09-03T04:51:28.614Z,15.65
2022-09-03T04:54:01.232Z,15.65
2022-09-03T04:56:30.799Z,15.60
2022-09-03T04:59:01.872Z,15.64
2022-09-03T05:01:30.797Z,15.61
2022-09-03T05:03:58.429Z,15.67
2022-09-03T05:06:30.101Z,15.72
2022-09-03T05:08:57.699Z,15.75
2022-09-03T05:11:25.602Z,15.80
2022-09-03T05:13:54.209Z,15.86
2022-09-03T05:16:22.985Z,15.94
2022-09-03T05:18:54.001Z,16.00
2022-09-03T05:21:21.533Z,16.06
2022-09-03T05:23:50.702Z,16.13
2022-09-03T05:26:25.999Z,16.22
2022-09-03T05:28:58.978Z,16.32
2022-09-03T05:31:28.241Z,16.38
2022-09-03T05:33:58.541Z,16.47
2022-09-03T05:36:28.066Z,16.58
2022-09-03T05:38:54.804Z,16.62
2022-09-03T05:41:22.722Z,16.69
2022-09-03T05:43:56.105Z,16.75
2022-09-03T05:46:30.119Z,16.83
2022-09-03T05:48:56.878Z,16.91
2022-09-03T05:51:23.493Z,16.93
2022-09-03T05:53:50.410Z,16.99
2022-09-03T05:56:19.292Z,17.03
2022-09-03T05:58:51.157Z,17.02
2022-09-03T06:01:29.082Z,17.00
2022-09-03T06:04:06.250Z,17.05
2022-09-03T06:06:35.674Z,17.13
2022-09-03T06:09:05.626Z,17.18
2022-09-03T06:11:34.745Z,17.24
2022-09-03T06:14:08.137Z,17.27
2022-09-03T06:16:40.149Z,17.30
2022-09-03T06:19:10.755Z,17.39
2022-09-03T06:21:42.641Z,17.51
2022-09-03T06:24:14.924Z,17.61
2022-09-03T06:26:42.848Z,17.59
2022-09-03T06:29:10.563Z,17.58
2022-09-03T06:31:37.545Z,17.59
2022-09-03T06:34:04.497Z,17.62
2022-09-03T06:36:31.604Z,17.75
2022-09-03T06:38:58.562Z,17.73
2022-09-03T06:41:28.037Z,17.73
2022-09-03T06:44:03.331Z,17.76
2022-09-03T06:46:39.033Z,17.77
2022-09-03T06:49:06.044Z,17.80
2022-09-03T06:51:33.354Z,17.80
2022-09-03T06:54:03.292Z,17.82
2022-09-03T06:56:32.340Z,17.90
2022-09-03T06:59:05.487Z,17.94
2022-09-03T07:01:33.867Z,17.80
2022-09-03T07:04:02.871Z,17.77
2022-09-03T07:06:33.068Z,17.87
2022-09-03T07:09:00.227Z,17.93
2022-09-03T07:11:30.855Z,17.82
2022-09-03T07:13:58.400Z,17.85
2022-09-03T07:16:30.173Z,17.88
2022-09-03T07:18:57.128Z,17.92
2022-09-03T07:21:26.054Z,17.80
2022-09-03T07:23:54.784Z,17.75
2022-09-03T07:26:30.839Z,17.79
2022-09-03T07:28:58.482Z,17.73
2022-09-03T07:31:28.167Z,17.72
2022-09-03T07:34:06.154Z,17.74
2022-09-03T07:36:43.033Z,17.77
2022-09-03T07:39:11.449Z,17.81
2022-09-03T07:41:38.772Z,17.79
2022-09-03T07:44:05.944Z,17.82
2022-09-03T07:46:35.213Z,17.80
2022-09-03T07:49:02.520Z,17.85
2022-09-03T07:51:32.167Z,17.91
2022-09-03T07:54:02.276Z,17.96
2022-09-03T07:56:32.406Z,18.14
2022-09-03T07:58:59.416Z,18.30
2022-09-03T08:01:28.596Z,18.58
2022-09-03T08:03:55.934Z,18.80
2022-09-03T08:06:25.576Z,18.91
2022-09-03T08:09:04.122Z,18.87
2022-09-03T08:11:32.654Z,18.99
2022-09-03T08:14:02.709Z,19.12
2022-09-03T08:16:32.108Z,19.17
2022-09-03T08:18:59.228Z,19.19
2022-09-03T08:21:29.216Z,19.27
2022-09-03T08:24:02.805Z,19.43
2022-09-03T08:26:31.912Z,19.44
2022-09-03T08:28:59.104Z,19.51
2022-09-03T08:31:27.945Z,19.51
2022-09-03T08:33:56.563Z,19.51
2022-09-03T08:36:30.000Z,19.57
2022-09-03T08:38:59.398Z,19.64
2022-09-03T08:41:52.952Z,19.71
2022-09-03T08:44:22.359Z,19.89
2022-09-03T08:47:24.465Z,19.91
2022-09-03T08:50:09.012Z,19.93
2022-09-03T08:52:50.291Z,19.76
2022-09-03T08:55:44.797Z,19.76
2022-09-03T08:58:11.961Z,19.05
2022-09-03T09:01:17.022Z,19.34
2022-09-03T09:03:49.636Z,19.31
2022-09-03T09:06:39.893Z,19.01
2022-09-03T09:09:38.052Z,19.02
2022-09-03T09:12:16.883Z,19.02
2022-09-03T09:15:17.979Z,19.23
2022-09-03T09:18:17.463Z,19.29
2022-09-03T09:20:52.739Z,19.22
2022-09-03T09:23:37.832Z,18.55
2022-09-03T09:26:12.338Z,18.35
2022-09-03T09:28:39.533Z,18.72
2022-09-03T09:31:10.167Z,18.70
2022-09-03T09:33:37.402Z,19.12
2022-09-03T09:36:08.496Z,19.35
2022-09-03T09:38:37.448Z,19.38
2022-09-03T09:41:23.372Z,19.50
2022-09-03T09:44:03.535Z,19.51
2022-09-03T09:46:41.536Z,19.56
2022-09-03T09:49:38.221Z,19.58
2022-09-03T09:52:12.026Z,19.72
2022-09-03T09:54:40.317Z,19.71
2022-09-03T09:57:14.352Z,19.65
2022-09-03T09:59:40.972Z,19.71
2022-09-03T10:02:13.832Z,19.67
2022-09-03T10:04:49.708Z,19.81
2022-09-03T10:07:32.049Z,19.94
2022-09-03T10:10:04.134Z,20.12
2022-09-03T10:12:35.355Z,20.07
2022-09-03T10:15:21.429Z,20.15
2022-09-03T10:18:03.410Z,20.18
2022-09-03T10:20:39.060Z,20.21
2022-09-03T10:23:18.010Z,20.18
2022-09-03T10:25:58.074Z,20.00
2022-09-03T10:28:30.484Z,20.10
2022-09-03T10:31:19.042Z,20.27
2022-09-03T10:34:33.648Z,20.35
2022-09-03T10:37:06.243Z,20.44
2022-09-03T10:39:54.573Z,20.45
2022-09-03T10:42:33.536Z,20.51
2022-09-03T10:45:18.077Z,20.46
2022-09-03T10:48:21.998Z,20.39
2022-09-03T10:50:51.529Z,20.41
2022-09-03T10:53:33.067Z,20.48
2022-09-03T10:56:08.975Z,20.55
2022-09-03T10:58:57.649Z,20.60
2022-09-03T11:01:45.759Z,20.82
2022-09-03T11:04:28.299Z,20.77
2022-09-03T11:07:03.076Z,20.78
2022-09-03T11:09:45.209Z,20.68
2022-09-03T11:12:22.323Z,20.54
2022-09-03T11:15:19.291Z,20.48
2022-09-03T11:17:56.813Z,20.29
2022-09-03T11:20:25.871Z,20.20
2022-09-03T11:23:03.321Z,20.12
2022-09-03T11:25:42.175Z,20.16
2022-09-03T11:28:27.757Z,20.13
2022-09-03T11:31:20.400Z,19.98
2022-09-03T11:34:19.643Z,19.97
2022-09-03T11:36:50.399Z,19.98
2022-09-03T11:39:35.073Z,20.01
2022-09-03T11:42:11.401Z,20.10
2022-09-03T11:44:51.162Z,20.22
2022-09-03T11:47:46.886Z,20.34
2022-09-03T11:50:24.956Z,20.30
2022-09-03T11:53:06.889Z,20.15
2022-09-03T11:55:47.225Z,20.15
2022-09-03T11:58:26.503Z,20.04
2022-09-03T12:00:55.135Z,19.92
2022-09-03T12:03:35.897Z,19.73
2022-09-03T12:06:05.549Z,19.62
2022-09-03T12:09:07.853Z,19.64
2022-09-03T12:11:57.702Z,19.75
2022-09-03T12:14:30.962Z,19.82
2022-09-03T12:17:06.537Z,19.79
2022-09-03T12:19:53.154Z,19.77
2022-09-03T12:22:22.759Z,19.66
2022-09-03T12:24:50.753Z,19.59
2022-09-03T12:27:24.240Z,19.51
2022-09-03T12:30:00.077Z,19.58
2022-09-03T12:32:37.172Z,19.64
2022-09-03T12:38:18.284Z,19.93
2022-09-03T12:43:40.815Z,19.93
2022-09-03T12:46:15.557Z,20.05
2022-09-03T12:52:05.773Z,20.00
2022-09-03T12:54:40.618Z,20.07
2022-09-03T12:57:08.943Z,19.98
2022-09-03T12:59:39.257Z,19.95
2022-09-03T13:02:16.057Z,19.99
2022-09-03T13:04:43.856Z,20.05
2022-09-03T13:07:23.714Z,20.09
2022-09-03T13:09:50.747Z,20.21
2022-09-03T13:12:29.111Z,20.30
2022-09-03T13:14:56.953Z,20.50
2022-09-03T13:17:23.433Z,20.55
2022-09-03T13:20:08.309Z,20.68
2022-09-03T13:22:54.081Z,21.02
2022-09-03T13:25:33.859Z,21.29
2022-09-03T13:28:40.022Z,21.48
2022-09-03T13:31:32.502Z,21.73
2022-09-03T13:34:07.900Z,21.80
2022-09-03T13:37:11.885Z,21.70
2022-09-03T13:39:53.340Z,21.45
2022-09-03T13:42:33.068Z,21.22
2022-09-03T13:45:26.292Z,20.84
2022-09-03T13:48:18.484Z,20.48
2022-09-03T13:51:09.331Z,20.35
2022-09-03T13:53:36.396Z,20.28
2022-09-03T13:56:16.778Z,20.10
2022-09-03T13:58:50.360Z,19.97
2022-09-03T14:01:41.097Z,19.89
2022-09-03T14:04:19.383Z,19.74
2022-09-03T14:07:02.811Z,19.71
2022-09-03T14:10:10.236Z,19.64
2022-09-03T14:12:55.239Z,19.59
2022-09-03T14:15:31.704Z,19.57
2022-09-03T14:18:14.001Z,19.56
2022-09-03T14:21:28.802Z,19.50
2022-09-03T14:24:07.301Z,19.57
2022-09-03T14:26:39.476Z,19.56
2022-09-03T14:29:12.031Z,19.59
2022-09-03T14:32:05.332Z,19.62
2022-09-03T14:34:59.929Z,19.74
2022-09-03T14:38:03.207Z,19.90
2022-09-03T14:40:45.122Z,20.01
2022-09-03T14:43:39.485Z,20.12
2022-09-03T14:46:30.880Z,20.35
2022-09-03T14:49:09.382Z,20.45
2022-09-03T14:52:01.278Z,20.59
2022-09-03T14:54:34.517Z,20.76
2022-09-03T14:57:13.114Z,20.72
2022-09-03T14:59:55.014Z,20.78
2022-09-03T15:02:36.593Z,20.88
2022-09-03T15:05:12.362Z,21.04
2022-09-03T15:07:46.786Z,21.04
2022-09-03T15:10:54.490Z,21.18
2022-09-03T15:13:27.885Z,21.23
2022-09-03T15:16:19.282Z,21.21
2022-09-03T15:19:04.781Z,21.11
2022-09-03T15:21:37.419Z,21.05
2022-09-03T15:24:14.006Z,20.99
2022-09-03T15:26:53.298Z,20.88
2022-09-03T15:29:48.197Z,20.88
2022-09-03T15:32:22.604Z,20.88
2022-09-03T15:35:04.425Z,20.79
2022-09-03T15:37:42.682Z,20.73
2022-09-03T15:40:41.749Z,20.70
2022-09-03T15:43:29.512Z,20.77
2022-09-03T15:46:30.307Z,20.74
2022-09-03T15:49:02.933Z,20.66
2022-09-03T15:51:49.929Z,20.57
2022-09-03T15:54:27.041Z,20.55
2022-09-03T15:57:02.441Z,20.53
2022-09-03T15:59:40.156Z,20.43
2022-09-03T16:02:33.355Z,20.34
2022-09-03T16:05:14.164Z,20.23
2022-09-03T16:08:09.438Z,20.12
2022-09-03T16:11:06.825Z,19.95
2022-09-03T16:13:44.660Z,19.78
2022-09-03T16:16:57.935Z,19.73
2022-09-03T16:19:34.153Z,19.71
2022-09-03T16:22:07.385Z,19.66
2022-09-03T16:24:45.041Z,19.60
2022-09-03T16:27:23.308Z,19.59
2022-09-03T16:29:57.935Z,19.58
2022-09-03T16:32:53.467Z,19.59
2022-09-03T16:35:31.774Z,19.58
2022-09-03T16:38:18.237Z,19.61
2022-09-03T16:41:01.923Z,19.57
2022-09-03T16:43:52.373Z,19.57
2022-09-03T16:46:49.480Z,19.69
2022-09-03T16:49:51.162Z,19.74
2022-09-03T16:52:37.557Z,19.74
2022-09-03T16:55:21.271Z,19.78
2022-09-03T16:58:09.846Z,19.68
2022-09-03T17:00:42.939Z,19.70
2022-09-03T17:03:34.493Z,19.68
2022-09-03T17:06:07.143Z,19.74
2022-09-03T17:08:42.748Z,19.71
2022-09-03T17:11:25.837Z,19.72
2022-09-03T17:14:19.552Z,19.90
2022-09-03T17:16:55.682Z,19.92
2022-09-03T17:19:52.520Z,19.65
2022-09-03T17:22:53.398Z,19.31
2022-09-03T17:25:21.069Z,18.96
2022-09-03T17:28:07.559Z,18.87
2022-09-03T17:31:09.948Z,18.75
2022-09-03T17:34:02.462Z,18.71
2022-09-03T17:36:31.378Z,18.64
2022-09-03T17:39:36.100Z,18.60
2022-09-03T17:42:06.458Z,18.43
2022-09-03T17:44:59.443Z,18.36
2022-09-03T17:47:44.659Z,18.29
2022-09-03T17:50:11.297Z,18.18
2022-09-03T17:52:44.157Z,18.11
2022-09-03T17:55:13.745Z,18.08
2022-09-03T17:57:45.946Z,18.03
2022-09-03T18:00:23.615Z,17.91
2022-09-03T18:03:14.225Z,17.89
2022-09-03T18:05:48.381Z,17.85
2022-09-03T18:08:24.839Z,17.91
2022-09-03T18:11:09.861Z,17.92
2022-09-03T18:13:54.616Z,17.93
2022-09-03T18:16:28.841Z,17.79
2022-09-03T18:19:18.826Z,17.72
2022-09-03T18:22:07.389Z,17.68
2022-09-03T18:25:06.876Z,17.67
2022-09-03T18:27:52.289Z,17.64
2022-09-03T18:30:38.125Z,17.56
2022-09-03T18:33:23.354Z,17.50
2022-09-03T18:36:08.856Z,17.36
2022-09-03T18:38:58.115Z,17.27
2022-09-03T18:42:18.753Z,17.23
2022-09-03T18:45:42.276Z,17.18
2022-09-03T18:48:51.916Z,17.13
2022-09-03T18:52:34.601Z,17.10
2022-09-03T18:56:01.104Z,17.10
2022-09-03T18:59:09.449Z,17.09
2022-09-03T19:01:58.512Z,17.05
2022-09-03T19:04:52.977Z,17.00
2022-09-03T19:08:00.107Z,16.98
2022-09-03T19:11:08.522Z,16.96
2022-09-03T19:13:58.717Z,16.96
2022-09-03T19:17:00.217Z,16.95
2022-09-03T19:19:53.499Z,16.90
2022-09-03T19:22:47.647Z,16.79
2022-09-03T19:25:34.180Z,16.79
2022-09-03T19:28:38.020Z,16.79
2022-09-03T19:31:58.368Z,16.75
2022-09-03T19:35:02.570Z,16.74
2022-09-03T19:37:59.875Z,16.72
2022-09-03T19:41:03.465Z,16.72
2022-09-03T19:43:48.558Z,16.68
2022-09-03T19:46:40.842Z,16.74
2022-09-03T19:49:50.862Z,16.71
2022-09-03T19:52:52.524Z,16.66
2022-09-03T19:55:44.140Z,16.65
2022-09-03T19:58:43.257Z,16.63
2022-09-03T20:01:30.141Z,16.67
2022-09-03T20:04:18.917Z,16.63
2022-09-03T20:07:05.114Z,16.62
2022-09-03T20:09:58.045Z,16.58
2022-09-03T20:12:28.819Z,16.59
2022-09-03T20:14:57.865Z,16.58
2022-09-03T20:17:46.104Z,16.57
2022-09-03T20:20:30.237Z,16.56
2022-09-03T20:23:02.987Z,16.54
2022-09-03T20:25:58.137Z,16.57
2022-09-03T20:28:30.811Z,16.48
2022-09-03T20:31:02.215Z,16.44
2022-09-03T20:34:03.145Z,16.43
2022-09-03T20:36:49.766Z,16.41
2022-09-03T20:39:55.368Z,16.36
2022-09-03T20:42:21.936Z,16.31
2022-09-03T20:45:06.526Z,16.36
2022-09-03T20:47:59.803Z,16.38
2022-09-03T20:50:43.613Z,16.34
2022-09-03T20:53:30.225Z,16.27
2022-09-03T20:56:03.568Z,16.25
2022-09-03T20:59:12.404Z,16.26
2022-09-03T21:01:57.655Z,16.20
2022-09-03T21:04:45.051Z,16.13
2022-09-03T21:07:17.966Z,16.10
2022-09-03T21:10:21.173Z,16.06
2022-09-03T21:12:57.227Z,16.01
2022-09-03T21:15:42.706Z,16.00
2022-09-03T21:18:27.703Z,16.01
2022-09-03T21:21:10.226Z,16.01
2022-09-03T21:23:44.720Z,15.95
2022-09-03T21:26:24.575Z,15.94
2022-09-03T21:29:09.474Z,15.85
2022-09-03T21:31:50.423Z,15.83
2022-09-03T21:34:31.057Z,15.85
2022-09-03T21:37:03.422Z,15.83
2022-09-03T21:40:01.287Z,15.80
2022-09-03T21:42:37.819Z,15.78
2022-09-03T21:45:09.205Z,15.79
2022-09-03T21:47:48.731Z,15.78
2022-09-03T21:50:19.474Z,15.75
2022-09-03T21:53:10.361Z,15.71
2022-09-03T21:55:49.086Z,15.64
2022-09-03T21:58:37.133Z,15.62
2022-09-03T22:01:10.633Z,15.59
2022-09-03T22:03:37.350Z,15.60
2022-09-03T22:06:12.153Z,15.61
2022-09-03T22:08:49.185Z,15.55
2022-09-03T22:11:29.461Z,15.53
2022-09-03T22:14:12.719Z,15.50
2022-09-03T22:16:48.083Z,15.49
2022-09-03T22:19:15.346Z,15.54
2022-09-03T22:21:57.118Z,15.54
2022-09-03T22:24:55.120Z,15.44
2022-09-03T22:27:46.574Z,15.39
2022-09-03T22:30:21.498Z,15.33
2022-09-03T22:33:18.730Z,15.37
2022-09-03T22:36:22.462Z,15.35
2022-09-03T22:38:55.304Z,15.35
2022-09-03T22:42:08.475Z,15.28
2022-09-03T22:44:55.525Z,15.25
2022-09-03T22:47:40.728Z,15.22
2022-09-03T22:50:14.068Z,15.16
2022-09-03T22:52:49.360Z,15.17
2022-09-03T22:55:18.507Z,15.19
2022-09-03T22:57:52.165Z,15.17
2022-09-03T23:00:19.178Z,15.13
2022-09-03T23:02:51.040Z,15.18
2022-09-03T23:05:43.905Z,15.21
2022-09-03T23:08:43.168Z,15.25
2022-09-03T23:11:25.296Z,15.17
2022-09-03T23:14:00.475Z,15.22
2022-09-03T23:17:06.141Z,15.16
2022-09-03T23:19:48.741Z,15.11
2022-09-03T23:22:27.723Z,15.16
2022-09-03T23:25:01.798Z,15.10
2022-09-03T23:28:00.808Z,15.12
2022-09-03T23:30:27.478Z,15.14
2022-09-03T23:32:58.331Z,15.11
2022-09-03T23:35:30.545Z,15.10
2022-09-03T23:38:13.467Z,15.04
2022-09-03T23:40:51.522Z,14.98
2022-09-03T23:43:38.975Z,14.96
2022-09-03T23:46:49.557Z,14.97
2022-09-03T23:49:29.297Z,15.00
2022-09-03T23:52:07.787Z,14.99
2022-09-03T23:54:47.886Z,14.94
2022-09-03T23:57:26.899Z,14.96
